createdAt,value
2017-12-11T00:01:37.970Z,6.53
2017-12-11T00:04:06.547Z,7.50
2017-12-11T00:06:34.998Z,6.22
2017-12-11T00:09:02.691Z,9.75
2017-12-11T00:11:30.343Z,4.97
2017-12-11T00:13:59.076Z,8.43
2017-12-11T00:16:26.696Z,7.75
2017-12-11T00:18:55.086Z,9.93
2017-12-11T00:21:22.717Z,7.15
2017-12-11T00:23:50.358Z,7.68
2017-12-11T00:26:18.746Z,7.00
2017-12-11T00:28:46.334Z,9.05
2017-12-11T00:31:14.796Z,9.32
2017-12-11T00:33:42.390Z,8.93
2017-12-11T00:36:09.987Z,7.12
2017-12-11T00:38:37.672Z,6.72
2017-12-11T00:41:05.303Z,6.47
2017-12-11T00:43:33.333Z,9.77
2017-12-11T00:46:00.997Z,6.18
2017-12-11T00:48:28.594Z,8.90
2017-12-11T00:50:56.243Z,8.60
2017-12-11T00:53:23.837Z,6.47
2017-12-11T00:55:51.477Z,7.95
2017-12-11T00:58:19.218Z,7.68
2017-12-11T01:00:46.826Z,7.78
2017-12-11T01:03:14.978Z,8.05
2017-12-11T01:05:42.714Z,7.85
2017-12-11T01:08:10.321Z,6.75
2017-12-11T01:10:38.163Z,9.18
2017-12-11T01:13:05.802Z,6.32
2017-12-11T01:15:33.418Z,7.65
2017-12-11T01:18:01.049Z,7.20
2017-12-11T01:20:28.656Z,6.93
2017-12-11T01:22:56.453Z,8.10
2017-12-11T01:25:24.097Z,9.25
2017-12-11T01:27:52.463Z,8.23
2017-12-11T01:30:20.095Z,9.43
2017-12-11T01:32:48.350Z,8.55
2017-12-11T01:35:15.965Z,6.93
2017-12-11T01:37:44.484Z,7.85
2017-12-11T01:40:12.578Z,8.13
2017-12-11T01:42:40.219Z,9.25
2017-12-11T01:45:08.976Z,9.27
2017-12-11T01:47:36.599Z,9.32
2017-12-11T01:50:04.201Z,8.25
2017-12-11T01:52:32.654Z,9.07
2017-12-11T01:55:00.275Z,9.75
2017-12-11T01:57:27.933Z,8.75
2017-12-11T01:59:55.758Z,10.40
2017-12-11T02:02:23.791Z,10.05
2017-12-11T02:04:51.413Z,8.30
2017-12-11T02:07:19.087Z,8.82
2017-12-11T02:09:47.502Z,8.38
2017-12-11T02:12:15.110Z,8.15
2017-12-11T02:14:42.762Z,8.52
2017-12-11T02:17:10.364Z,7.60
2017-12-11T02:19:38.830Z,8.77
2017-12-11T02:22:06.468Z,9.02
2017-12-11T02:24:34.214Z,9.38
2017-12-11T02:27:02.950Z,8.60
2017-12-11T02:29:31.380Z,7.85
2017-12-11T02:31:59.019Z,8.20
2017-12-11T02:34:26.603Z,8.75
2017-12-11T02:36:54.306Z,9.23
2017-12-11T02:39:22.842Z,7.87
2017-12-11T02:41:50.430Z,5.85
2017-12-11T02:44:18.054Z,9.00
2017-12-11T02:46:45.671Z,8.63
2017-12-11T02:49:13.462Z,8.63
2017-12-11T02:51:41.173Z,7.65
2017-12-11T02:54:08.756Z,8.80
2017-12-11T02:56:36.460Z,9.13
2017-12-11T02:59:04.151Z,7.50
2017-12-11T03:01:31.778Z,8.13
2017-12-11T03:03:59.400Z,4.93
2017-12-11T03:06:27.035Z,5.80
2017-12-11T03:08:55.533Z,8.52
2017-12-11T03:11:23.235Z,8.80
2017-12-11T03:13:50.840Z,9.18
2017-12-11T03:16:18.729Z,9.43
2017-12-11T03:18:46.368Z,8.82
2017-12-11T03:21:13.989Z,8.75
2017-12-11T03:23:41.572Z,8.57
2017-12-11T03:26:09.273Z,9.90
2017-12-11T03:28:36.861Z,9.20
2017-12-11T03:31:05.321Z,9.40
2017-12-11T03:33:32.907Z,9.10
2017-12-11T03:36:01.302Z,8.55
2017-12-11T03:38:28.963Z,9.95
2017-12-11T03:40:56.619Z,9.65
2017-12-11T03:43:25.325Z,10.43
2017-12-11T03:45:53.037Z,8.10
2017-12-11T03:48:20.641Z,8.93
2017-12-11T03:50:48.265Z,9.30
2017-12-11T03:53:15.968Z,8.13
2017-12-11T03:55:43.614Z,8.30
2017-12-11T03:58:12.071Z,9.02
2017-12-11T04:00:39.758Z,8.80
2017-12-11T04:03:07.426Z,9.30
2017-12-11T04:05:35.000Z,8.80
2017-12-11T04:08:02.606Z,8.88
2017-12-11T04:10:30.256Z,9.85
2017-12-11T04:12:57.878Z,8.63
2017-12-11T04:15:25.639Z,9.13
2017-12-11T04:17:53.261Z,8.27
2017-12-11T04:20:20.874Z,9.20
2017-12-11T04:22:48.533Z,10.25
2017-12-11T04:25:16.191Z,9.30
2017-12-11T04:27:43.849Z,8.95
2017-12-11T04:30:11.476Z,9.57
2017-12-11T04:32:39.178Z,10.15
2017-12-11T04:35:06.823Z,10.27
2017-12-11T04:37:35.178Z,9.80
2017-12-11T04:40:02.779Z,10.00
2017-12-11T04:42:30.545Z,8.88
2017-12-11T04:44:58.180Z,8.75
2017-12-11T04:47:26.564Z,9.68
2017-12-11T04:49:54.451Z,9.85
2017-12-11T04:52:22.129Z,10.43
2017-12-11T04:54:49.792Z,10.00
2017-12-11T04:57:17.583Z,8.75
2017-12-11T04:59:45.218Z,10.23
2017-12-11T05:02:12.827Z,11.05
2017-12-11T05:04:40.485Z,11.12
2017-12-11T05:07:08.875Z,10.20
2017-12-11T05:09:37.278Z,10.68
2017-12-11T05:12:04.983Z,10.85
2017-12-11T05:14:32.586Z,10.52
2017-12-11T05:17:00.194Z,9.35
2017-12-11T05:19:27.807Z,9.40
2017-12-11T05:21:56.365Z,10.95
2017-12-11T05:24:24.011Z,9.45
2017-12-11T05:26:52.393Z,9.82
2017-12-11T05:29:20.102Z,10.25
2017-12-11T05:31:47.711Z,9.40
2017-12-11T05:34:15.378Z,9.43
2017-12-11T05:36:43.017Z,10.73
2017-12-11T05:39:10.577Z,10.70
2017-12-11T05:41:38.278Z,11.10
2017-12-11T05:44:05.899Z,10.90
2017-12-11T05:46:33.552Z,11.57
2017-12-11T05:49:01.172Z,10.43
2017-12-11T05:51:29.745Z,10.25
2017-12-11T05:53:58.192Z,12.57
2017-12-11T05:56:26.634Z,10.32
2017-12-11T05:58:54.336Z,11.38
2017-12-11T06:01:22.111Z,10.90
2017-12-11T06:03:49.839Z,11.60
2017-12-11T06:06:17.526Z,10.68
2017-12-11T06:08:45.180Z,11.00
2017-12-11T06:11:12.837Z,11.40
2017-12-11T06:13:40.486Z,10.43
2017-12-11T06:16:08.147Z,10.23
2017-12-11T06:18:35.807Z,10.88
2017-12-11T06:21:03.460Z,11.80
2017-12-11T06:23:31.130Z,11.68
2017-12-11T06:25:58.793Z,11.12
2017-12-11T06:28:26.477Z,12.25
2017-12-11T06:30:54.130Z,11.95
2017-12-11T06:33:21.833Z,11.25
2017-12-11T06:35:49.508Z,12.48
2017-12-11T06:38:17.967Z,10.75
2017-12-11T06:40:45.636Z,10.23
2017-12-11T06:43:13.348Z,10.90
2017-12-11T06:45:41.151Z,11.50
2017-12-11T06:48:08.807Z,9.95
2017-12-11T06:50:36.517Z,12.00
2017-12-11T06:53:04.927Z,11.30
2017-12-11T06:55:32.632Z,11.30
2017-12-11T06:58:00.313Z,11.07
2017-12-11T07:00:28.017Z,10.63
2017-12-11T07:02:55.755Z,15.45
2017-12-11T07:05:23.426Z,11.55
2017-12-11T07:07:51.018Z,11.10
2017-12-11T07:10:18.623Z,11.15
2017-12-11T07:12:47.024Z,12.32
2017-12-11T07:15:14.747Z,10.95
2017-12-11T07:17:42.350Z,11.02
2017-12-11T07:20:09.956Z,9.75
2017-12-11T07:22:37.704Z,11.48
2017-12-11T07:25:06.065Z,10.52
2017-12-11T07:27:33.668Z,10.77
2017-12-11T07:30:01.360Z,10.82
2017-12-11T07:32:29.729Z,11.32
2017-12-11T07:34:57.454Z,10.20
2017-12-11T07:37:25.037Z,11.12
2017-12-11T07:39:52.657Z,9.73
2017-12-11T07:42:20.268Z,10.88
2017-12-11T07:44:48.642Z,11.35
2017-12-11T07:47:17.009Z,11.30
2017-12-11T07:49:44.660Z,10.50
2017-12-11T07:52:13.143Z,10.32
2017-12-11T07:54:40.819Z,11.30
2017-12-11T07:57:09.250Z,12.30
2017-12-11T07:59:36.847Z,13.05
2017-12-11T08:02:04.433Z,11.38
2017-12-11T08:04:32.879Z,11.52
2017-12-11T08:07:00.752Z,11.70
2017-12-11T08:09:28.421Z,10.02
2017-12-11T08:11:56.053Z,10.75
2017-12-11T08:14:23.648Z,10.98
2017-12-11T08:16:51.998Z,11.45
2017-12-11T08:19:19.845Z,10.20
2017-12-11T08:21:47.487Z,12.37
2017-12-11T08:24:16.205Z,11.90
2017-12-11T08:26:43.902Z,10.85
2017-12-11T08:29:12.084Z,12.77
2017-12-11T08:31:39.667Z,11.70
2017-12-11T08:34:07.286Z,12.32
2017-12-11T08:36:34.918Z,11.25
2017-12-11T08:39:03.277Z,10.98
2017-12-11T08:41:30.894Z,11.55
2017-12-11T08:43:58.530Z,11.70
2017-12-11T08:46:26.257Z,11.00
2017-12-11T08:48:54.647Z,11.65
2017-12-11T08:51:22.232Z,12.37
2017-12-11T08:53:49.852Z,11.65
2017-12-11T08:56:17.482Z,10.15
2017-12-11T08:58:45.287Z,11.88
2017-12-11T09:01:12.893Z,11.98
2017-12-11T09:03:40.522Z,11.38
2017-12-11T09:06:08.886Z,11.35
2017-12-11T09:08:36.515Z,11.98
2017-12-11T09:11:04.178Z,12.00
2017-12-11T09:13:31.902Z,13.07
2017-12-11T09:16:00.256Z,11.27
2017-12-11T09:18:28.620Z,13.35
2017-12-11T09:20:57.723Z,12.00
2017-12-11T09:23:25.447Z,12.23
2017-12-11T09:25:53.204Z,12.23
2017-12-11T09:28:20.804Z,11.32
2017-12-11T09:30:48.481Z,12.70
2017-12-11T09:33:16.890Z,11.55
2017-12-11T09:35:44.526Z,13.80
2017-12-11T09:38:12.920Z,13.38
2017-12-11T09:40:40.567Z,12.65
2017-12-11T09:43:09.035Z,12.68
2017-12-11T09:45:36.679Z,11.02
2017-12-11T09:48:04.288Z,14.90
2017-12-11T09:50:32.153Z,13.48
2017-12-11T09:52:59.760Z,13.27
2017-12-11T09:55:27.399Z,13.52
2017-12-11T09:57:55.070Z,15.98
2017-12-11T10:00:22.661Z,9.00
2017-12-11T10:02:50.246Z,13.88
2017-12-11T10:05:17.880Z,14.40
2017-12-11T10:07:45.472Z,14.68
2017-12-11T10:10:13.834Z,14.60
2017-12-11T10:12:42.255Z,16.67
2017-12-11T10:15:09.989Z,15.88
2017-12-11T10:17:37.683Z,13.88
2017-12-11T10:20:05.314Z,13.80
2017-12-11T10:22:33.027Z,13.68
2017-12-11T10:25:00.661Z,14.65
2017-12-11T10:27:28.305Z,14.80
2017-12-11T10:29:56.610Z,15.35
2017-12-11T10:32:24.306Z,14.73
2017-12-11T10:34:52.004Z,14.77
2017-12-11T10:37:19.758Z,13.55
2017-12-11T10:39:47.625Z,15.43
2017-12-11T10:42:16.082Z,14.60
2017-12-11T10:44:43.736Z,17.25
2017-12-11T10:47:11.433Z,14.77
2017-12-11T10:49:39.062Z,16.77
2017-12-11T10:52:06.766Z,16.05
2017-12-11T10:54:34.364Z,16.20
2017-12-11T10:57:02.073Z,16.80
2017-12-11T10:59:29.704Z,14.27
2017-12-11T11:01:57.296Z,15.80
2017-12-11T11:04:24.947Z,17.12
2017-12-11T11:06:52.594Z,16.10
2017-12-11T11:09:20.292Z,19.75
2017-12-11T11:11:47.962Z,18.10
2017-12-11T11:14:15.581Z,17.27
2017-12-11T11:16:44.105Z,17.05
2017-12-11T11:19:13.399Z,18.35
2017-12-11T11:21:41.087Z,15.50
2017-12-11T11:24:08.658Z,17.52
2017-12-11T11:26:36.258Z,17.87
2017-12-11T11:29:03.950Z,18.62
2017-12-11T11:31:33.270Z,16.95
2017-12-11T11:34:00.902Z,16.40
2017-12-11T11:36:28.587Z,17.30
2017-12-11T11:38:56.168Z,19.30
2017-12-11T11:41:24.657Z,19.80
2017-12-11T11:43:52.969Z,18.65
2017-12-11T11:46:20.571Z,20.70
2017-12-11T11:48:48.937Z,19.87
2017-12-11T11:51:17.324Z,17.30
2017-12-11T11:53:45.796Z,19.42
2017-12-11T11:56:14.183Z,19.73
2017-12-11T11:58:42.534Z,19.20
2017-12-11T12:01:10.197Z,18.52
2017-12-11T12:03:37.913Z,17.70
2017-12-11T12:06:05.565Z,18.10
2017-12-11T12:08:33.170Z,18.23
2017-12-11T12:11:00.828Z,20.30
2017-12-11T12:13:29.033Z,19.95
2017-12-11T12:15:57.408Z,17.58
2017-12-11T12:18:25.103Z,16.92
2017-12-11T12:20:52.772Z,18.52
2017-12-11T12:23:20.499Z,20.20
2017-12-11T12:25:48.152Z,18.92
2017-12-11T12:28:15.861Z,19.60
2017-12-11T12:30:43.479Z,18.95
2017-12-11T12:33:11.109Z,18.58
2017-12-11T12:35:38.820Z,18.67
2017-12-11T12:38:07.334Z,18.80
2017-12-11T12:40:35.002Z,17.65
2017-12-11T12:43:02.641Z,19.05
2017-12-11T12:45:30.251Z,17.10
2017-12-11T12:47:57.860Z,17.30
2017-12-11T12:50:25.495Z,12.75
2017-12-11T12:52:53.141Z,18.98
2017-12-11T12:55:21.379Z,17.02
2017-12-11T12:57:49.842Z,17.50
2017-12-11T13:00:17.457Z,20.00
2017-12-11T13:02:45.045Z,16.95
2017-12-11T13:05:13.515Z,19.50
2017-12-11T13:07:41.097Z,19.90
2017-12-11T13:10:09.430Z,18.42
2017-12-11T13:12:36.990Z,17.12
2017-12-11T13:15:04.641Z,18.35
2017-12-11T13:17:32.315Z,16.60
2017-12-11T13:19:59.931Z,18.83
2017-12-11T13:22:27.584Z,18.23
2017-12-11T13:24:55.192Z,19.20
2017-12-11T13:27:22.835Z,17.58
2017-12-11T13:29:50.446Z,14.07
2017-12-11T13:32:18.086Z,17.35
2017-12-11T13:34:46.472Z,17.85
2017-12-11T13:37:14.103Z,16.33
2017-12-11T13:39:41.714Z,18.17
2017-12-11T13:42:09.309Z,19.05
2017-12-11T13:44:37.017Z,17.75
2017-12-11T13:47:04.611Z,17.80
2017-12-11T13:49:33.005Z,17.05
2017-12-11T13:52:00.585Z,14.52
2017-12-11T13:54:28.264Z,17.65
2017-12-11T13:56:55.875Z,16.12
2017-12-11T13:59:23.485Z,17.95
2017-12-11T14:01:51.137Z,16.80
2017-12-11T14:04:18.712Z,16.83
2017-12-11T14:06:46.455Z,16.27
2017-12-11T14:09:14.125Z,16.52
2017-12-11T14:11:41.717Z,17.00
2017-12-11T14:14:09.342Z,16.33
2017-12-11T14:16:37.052Z,14.93
2017-12-11T14:19:04.638Z,16.25
2017-12-11T14:21:32.284Z,15.25
2017-12-11T14:24:01.671Z,14.75
2017-12-11T14:26:30.200Z,15.60
2017-12-11T14:28:58.613Z,14.80
2017-12-11T14:31:26.263Z,13.25
2017-12-11T14:33:53.907Z,14.32
2017-12-11T14:36:21.572Z,13.70
2017-12-11T14:38:49.173Z,13.15
2017-12-11T14:41:16.854Z,11.07
2017-12-11T14:43:45.330Z,13.40
2017-12-11T14:46:13.758Z,13.30
2017-12-11T14:48:41.343Z,14.13
2017-12-11T14:51:08.955Z,13.15
2017-12-11T14:53:36.616Z,10.77
2017-12-11T14:56:04.224Z,12.57
2017-12-11T14:58:31.889Z,12.65
2017-12-11T15:00:59.463Z,12.85
2017-12-11T15:03:27.095Z,13.20
2017-12-11T15:05:54.690Z,10.90
2017-12-11T15:08:22.295Z,11.82
2017-12-11T15:10:49.912Z,10.90
2017-12-11T15:13:17.552Z,11.27
2017-12-11T15:15:45.157Z,10.38
2017-12-11T15:18:12.744Z,11.00
2017-12-11T15:20:40.366Z,11.02
2017-12-11T15:23:08.811Z,11.02
2017-12-11T15:25:36.417Z,10.60
2017-12-11T15:28:04.817Z,12.65
2017-12-11T15:30:32.436Z,11.35
2017-12-11T15:33:00.122Z,10.02
2017-12-11T15:35:27.774Z,10.23
2017-12-11T15:37:55.382Z,11.75
2017-12-11T15:40:23.021Z,10.25
2017-12-11T15:42:50.727Z,11.18
2017-12-11T15:45:18.358Z,12.05
2017-12-11T15:47:46.009Z,13.70
2017-12-11T15:50:13.607Z,11.23
2017-12-11T15:52:41.317Z,11.70
2017-12-11T15:55:08.996Z,10.63
2017-12-11T15:57:36.573Z,9.93
2017-12-11T16:00:04.252Z,10.25
2017-12-11T16:02:31.920Z,11.15
2017-12-11T16:04:59.694Z,10.60
2017-12-11T16:07:27.281Z,11.98
2017-12-11T16:09:56.325Z,11.18
2017-12-11T16:12:23.977Z,11.55
2017-12-11T16:14:51.636Z,11.70
2017-12-11T16:17:19.273Z,9.90
2017-12-11T16:19:46.961Z,12.15
2017-12-11T16:22:14.652Z,10.30
2017-12-11T16:24:42.711Z,10.20
2017-12-11T16:27:10.304Z,9.15
2017-12-11T16:29:38.019Z,10.95
2017-12-11T16:32:05.825Z,10.88
2017-12-11T16:34:34.291Z,11.52
2017-12-11T16:37:02.095Z,10.15
2017-12-11T16:39:30.500Z,11.35
2017-12-11T16:41:58.153Z,10.95
2017-12-11T16:44:25.824Z,12.65
2017-12-11T16:46:53.593Z,12.45
2017-12-11T16:49:21.224Z,13.60
2017-12-11T16:51:49.659Z,12.52
2017-12-11T16:54:17.346Z,12.82
2017-12-11T16:56:45.006Z,14.45
2017-12-11T16:59:12.618Z,16.00
2017-12-11T17:01:40.322Z,15.05
2017-12-11T17:04:07.912Z,16.60
2017-12-11T17:06:35.596Z,15.13
2017-12-11T17:09:03.314Z,15.30
2017-12-11T17:11:30.910Z,12.63
2017-12-11T17:13:58.487Z,15.02
2017-12-11T17:16:26.247Z,13.45
2017-12-11T17:18:53.870Z,12.95
2017-12-11T17:21:22.285Z,15.07
2017-12-11T17:23:49.939Z,14.87
2017-12-11T17:26:17.571Z,16.85
2017-12-11T17:28:45.172Z,16.70
2017-12-11T17:31:12.823Z,14.20
2017-12-11T17:33:40.431Z,13.18
2017-12-11T17:36:09.035Z,14.95
2017-12-11T17:38:37.611Z,14.57
2017-12-11T17:41:05.290Z,15.07
2017-12-11T17:43:33.720Z,14.25
2017-12-11T17:46:01.467Z,13.40
2017-12-11T17:48:29.170Z,14.60
2017-12-11T17:50:56.973Z,14.00
2017-12-11T17:53:25.775Z,16.17
2017-12-11T17:55:53.488Z,14.43
2017-12-11T17:58:21.940Z,17.30
2017-12-11T18:00:49.765Z,15.57
2017-12-11T18:03:18.307Z,16.15
2017-12-11T18:05:45.921Z,15.32
2017-12-11T18:08:13.663Z,15.35
2017-12-11T18:10:42.870Z,15.98
2017-12-11T18:13:10.579Z,16.65
2017-12-11T18:15:38.213Z,16.90
2017-12-11T18:18:05.976Z,14.35
2017-12-11T18:20:34.434Z,16.70
2017-12-11T18:23:03.636Z,17.27
2017-12-11T18:25:32.147Z,15.85
2017-12-11T18:27:59.930Z,18.62
2017-12-11T18:30:27.700Z,20.52
2017-12-11T18:32:56.088Z,17.40
2017-12-11T18:35:23.919Z,17.45
2017-12-11T18:37:51.949Z,18.73
2017-12-11T18:40:19.731Z,17.40
2017-12-11T18:42:48.136Z,19.73
2017-12-11T18:45:15.873Z,20.12
2017-12-11T18:47:44.026Z,18.60
2017-12-11T18:50:11.736Z,19.58
2017-12-11T18:52:39.755Z,19.20
2017-12-11T18:55:07.462Z,18.30
2017-12-11T18:57:35.950Z,78.95
2017-12-11T19:00:03.656Z,19.75
2017-12-11T19:02:31.324Z,16.80
2017-12-11T19:04:59.125Z,16.87
2017-12-11T19:07:26.914Z,18.02
2017-12-11T19:09:54.896Z,18.45
2017-12-11T19:12:22.842Z,18.85
2017-12-11T19:14:50.702Z,18.25
2017-12-11T19:17:18.494Z,16.60
2017-12-11T19:19:46.220Z,16.10
2017-12-11T19:22:14.688Z,18.15
2017-12-11T19:27:28.306Z,19.87
2017-12-11T19:29:55.928Z,19.45
2017-12-11T19:32:24.354Z,18.40
2017-12-11T19:34:52.035Z,19.12
2017-12-11T19:37:19.739Z,18.48
2017-12-11T19:39:47.668Z,17.37
2017-12-11T19:42:15.416Z,25.75
2017-12-11T19:44:43.148Z,23.35
2017-12-11T19:47:10.964Z,18.60
2017-12-11T19:49:39.450Z,19.55
2017-12-11T19:52:07.209Z,19.70
2017-12-11T19:54:35.624Z,18.30
2017-12-11T19:57:03.336Z,18.85
2017-12-11T19:59:31.052Z,16.30
2017-12-11T20:01:58.778Z,17.37
2017-12-11T20:04:26.578Z,18.17
2017-12-11T20:06:54.347Z,16.85
2017-12-11T20:09:22.196Z,17.70
2017-12-11T20:11:49.935Z,17.45
2017-12-11T20:14:17.692Z,17.85
2017-12-11T20:16:45.623Z,16.52
2017-12-11T20:19:13.269Z,16.62
2017-12-11T20:21:41.603Z,17.62
2017-12-11T20:24:10.035Z,16.77
2017-12-11T20:26:37.681Z,18.87
2017-12-11T20:29:05.336Z,19.00
2017-12-11T20:31:33.740Z,19.23
2017-12-11T20:34:01.383Z,19.15
2017-12-11T20:36:29.069Z,19.30
2017-12-11T20:38:56.645Z,17.12
2017-12-11T20:41:24.375Z,18.70
2017-12-11T20:43:52.066Z,17.60
2017-12-11T20:46:19.847Z,18.25
2017-12-11T20:48:47.554Z,20.37
2017-12-11T20:51:15.190Z,20.05
2017-12-11T20:53:42.918Z,20.15
2017-12-11T20:56:12.189Z,20.52
2017-12-11T20:58:39.988Z,20.02
2017-12-11T21:01:07.749Z,19.98
2017-12-11T21:03:35.470Z,18.85
2017-12-11T21:06:03.127Z,20.12
2017-12-11T21:08:30.800Z,21.00
2017-12-11T21:10:58.476Z,19.87
2017-12-11T21:13:26.092Z,17.62
2017-12-11T21:15:54.717Z,19.27
2017-12-11T21:18:22.411Z,19.67
2017-12-11T21:20:50.150Z,19.70
2017-12-11T21:23:18.720Z,18.45
2017-12-11T21:25:46.414Z,20.33
2017-12-11T21:28:15.884Z,20.12
2017-12-11T21:30:43.564Z,20.15
2017-12-11T21:33:11.233Z,19.62
2017-12-11T21:35:39.006Z,19.67
2017-12-11T21:38:06.725Z,16.42
2017-12-11T21:40:34.355Z,17.77
2017-12-11T21:43:02.922Z,20.00
2017-12-11T21:45:30.666Z,18.60
2017-12-11T21:47:58.415Z,19.05
2017-12-11T21:50:26.107Z,19.25
2017-12-11T21:52:53.780Z,18.02
2017-12-11T21:55:22.191Z,18.33
2017-12-11T21:57:49.886Z,16.70
2017-12-11T22:00:17.711Z,18.50
2017-12-11T22:02:45.621Z,18.62
2017-12-11T22:05:13.261Z,17.90
2017-12-11T22:07:40.963Z,18.35
2017-12-11T22:10:09.642Z,19.30
2017-12-11T22:12:37.363Z,18.23
2017-12-11T22:15:05.040Z,19.20
2017-12-11T22:17:32.804Z,20.17
2017-12-11T22:20:00.494Z,17.48
2017-12-11T22:22:29.118Z,19.60
2017-12-11T22:24:56.996Z,19.37
2017-12-11T22:27:24.676Z,20.75
2017-12-11T22:29:52.378Z,22.15
2017-12-11T22:32:20.080Z,22.62
2017-12-11T22:34:47.718Z,22.48
2017-12-11T22:37:15.434Z,21.08
2017-12-11T22:39:43.202Z,21.75
2017-12-11T22:42:10.795Z,20.02
2017-12-11T22:44:38.448Z,21.75
2017-12-11T22:47:06.844Z,24.15
2017-12-11T22:49:34.685Z,23.62
2017-12-11T22:52:02.296Z,23.40
2017-12-11T22:54:29.976Z,22.62
2017-12-11T22:56:57.640Z,24.10
2017-12-11T22:59:26.281Z,14.02
2017-12-11T23:01:53.984Z,18.50
2017-12-11T23:04:21.761Z,19.00
2017-12-11T23:06:49.422Z,19.98
2017-12-11T23:09:17.101Z,17.92
2017-12-11T23:11:45.738Z,18.77
2017-12-11T23:14:14.363Z,18.80
2017-12-11T23:16:41.987Z,16.33
2017-12-11T23:19:09.666Z,18.23
2017-12-11T23:21:37.343Z,18.98
2017-12-11T23:24:05.891Z,19.12
2017-12-11T23:26:33.493Z,17.20
2017-12-11T23:29:01.650Z,14.40
2017-12-11T23:31:29.288Z,17.15
2017-12-11T23:33:57.019Z,17.70
2017-12-11T23:36:25.456Z,17.30
2017-12-11T23:38:53.072Z,15.80
2017-12-11T23:41:20.794Z,13.73
2017-12-11T23:43:48.446Z,12.00
2017-12-11T23:46:16.907Z,11.35
2017-12-11T23:48:44.548Z,14.45
2017-12-11T23:51:12.176Z,14.90
2017-12-11T23:53:39.922Z,13.57
2017-12-11T23:56:08.164Z,12.60
2017-12-11T23:58:36.521Z,14.87
